createdAt,value
2022-11-25T00:01:30.404Z,29.47
2022-11-25T00:04:36.986Z,32.80
2022-11-25T00:07:39.127Z,29.42
2022-11-25T00:10:40.794Z,27.67
2022-11-25T00:13:43.834Z,31.58
2022-11-25T00:16:48.570Z,31.73
2022-11-25T00:19:50.937Z,28.27
2022-11-25T00:22:52.529Z,30.75
2022-11-25T00:25:54.167Z,25.50
2022-11-25T00:28:59.215Z,29.77
2022-11-25T00:32:00.949Z,29.53
2022-11-25T00:35:02.624Z,24.73
2022-11-25T00:38:04.214Z,25.75
2022-11-25T00:41:24.659Z,27.83
2022-11-25T00:44:42.033Z,23.23
2022-11-25T00:47:44.021Z,25.77
2022-11-25T00:50:46.367Z,28.13
2022-11-25T00:53:47.961Z,26.35
2022-11-25T00:56:50.200Z,29.02
2022-11-25T00:59:51.899Z,28.08
2022-11-25T01:02:54.373Z,27.90
2022-11-25T01:06:00.609Z,24.00
2022-11-25T01:09:02.890Z,25.92
2022-11-25T01:12:05.401Z,24.38
2022-11-25T01:15:07.823Z,23.30
2022-11-25T01:18:09.490Z,24.70
2022-11-25T01:21:16.773Z,23.80
2022-11-25T01:24:18.519Z,23.63
2022-11-25T01:27:20.057Z,29.30
2022-11-25T01:30:21.682Z,26.45
2022-11-25T01:33:23.530Z,29.77
2022-11-25T01:36:25.842Z,27.43
2022-11-25T01:39:32.490Z,30.17
2022-11-25T01:42:34.782Z,22.75
2022-11-25T01:45:37.569Z,26.88
2022-11-25T01:48:43.061Z,25.73
2022-11-25T01:51:54.129Z,29.03
2022-11-25T01:54:59.779Z,22.67
2022-11-25T01:58:18.377Z,22.60
2022-11-25T02:01:21.789Z,22.70
2022-11-25T02:04:29.253Z,24.27
2022-11-25T02:07:35.691Z,23.60
2022-11-25T02:10:38.450Z,24.08
2022-11-25T02:13:40.733Z,27.10
2022-11-25T02:16:42.435Z,23.27
2022-11-25T02:19:59.022Z,24.43
2022-11-25T02:23:19.627Z,29.27
2022-11-25T02:26:21.285Z,22.55
2022-11-25T02:29:23.963Z,23.98
2022-11-25T02:32:25.540Z,23.27
2022-11-25T02:35:35.854Z,25.37
2022-11-25T02:39:09.999Z,24.37
2022-11-25T02:42:11.821Z,23.55
2022-11-25T02:45:18.106Z,22.90
2022-11-25T02:48:23.904Z,25.33
2022-11-25T02:51:32.471Z,26.20
2022-11-25T02:54:34.321Z,26.77
2022-11-25T02:57:36.141Z,21.50
2022-11-25T03:00:39.138Z,22.83
2022-11-25T03:03:40.690Z,25.60
2022-11-25T03:06:42.324Z,30.17
2022-11-25T03:09:43.948Z,21.90
2022-11-25T03:12:45.562Z,28.63
2022-11-25T03:15:47.150Z,28.50
2022-11-25T03:18:49.561Z,23.80
2022-11-25T03:21:51.244Z,24.33
2022-11-25T03:24:52.795Z,23.33
2022-11-25T03:27:54.379Z,27.65
2022-11-25T03:30:56.059Z,23.63
2022-11-25T03:33:57.859Z,22.63
2022-11-25T03:36:59.445Z,26.53
2022-11-25T03:40:01.307Z,24.87
2022-11-25T03:43:03.343Z,32.47
2022-11-25T03:46:05.127Z,32.10
2022-11-25T03:49:06.938Z,31.25
2022-11-25T03:52:08.666Z,23.80
2022-11-25T03:55:12.913Z,25.43
2022-11-25T03:58:14.654Z,24.55
2022-11-25T04:01:16.299Z,25.95
2022-11-25T04:04:18.074Z,18.83
2022-11-25T04:07:19.731Z,26.90
2022-11-25T04:10:23.506Z,22.67
2022-11-25T04:13:25.144Z,22.52
2022-11-25T04:16:26.820Z,22.38
2022-11-25T04:19:28.871Z,24.02
2022-11-25T04:22:30.502Z,29.27
2022-11-25T04:25:33.142Z,24.03
2022-11-25T04:28:34.700Z,27.42
2022-11-25T04:31:38.019Z,26.88
2022-11-25T04:34:39.619Z,30.52
2022-11-25T04:37:41.263Z,30.23
2022-11-25T04:40:43.108Z,25.80
2022-11-25T04:43:44.848Z,25.35
2022-11-25T04:46:46.507Z,24.13
2022-11-25T04:49:48.198Z,27.60
2022-11-25T04:52:49.910Z,28.00
2022-11-25T04:55:51.469Z,25.37
2022-11-25T04:59:11.603Z,26.70
2022-11-25T05:02:22.541Z,28.33
2022-11-25T05:05:24.273Z,26.30
2022-11-25T05:08:26.396Z,28.10
2022-11-25T05:11:27.997Z,27.00
2022-11-25T05:14:29.673Z,47.25
2022-11-25T05:17:32.119Z,42.85
2022-11-25T05:20:34.347Z,32.78
2022-11-25T05:23:35.985Z,30.97
2022-11-25T05:26:37.572Z,40.60
2022-11-25T05:29:39.242Z,29.17
2022-11-25T05:32:40.895Z,33.13
2022-11-25T05:35:42.453Z,31.98
2022-11-25T05:38:44.668Z,32.33
2022-11-25T05:41:46.335Z,29.27
2022-11-25T05:44:47.967Z,28.70
2022-11-25T05:47:49.562Z,37.45
2022-11-25T05:50:51.923Z,34.10
2022-11-25T05:53:56.812Z,31.37
2022-11-25T05:56:58.439Z,30.20
2022-11-25T06:00:00.099Z,34.10
2022-11-25T06:03:02.063Z,34.10
2022-11-25T06:06:07.113Z,34.17
2022-11-25T06:09:13.224Z,30.13
2022-11-25T06:12:22.582Z,30.53
2022-11-25T06:15:37.038Z,28.73
2022-11-25T06:18:45.776Z,29.10
2022-11-25T06:25:10.884Z,32.60
2022-11-25T06:28:14.822Z,27.63
2022-11-25T06:31:25.144Z,31.42
2022-11-25T06:34:37.166Z,32.47
2022-11-25T06:37:46.707Z,32.65
2022-11-25T06:44:17.475Z,34.73
2022-11-25T06:48:18.191Z,32.35
2022-11-25T07:05:42.285Z,114.83
2022-11-25T07:08:56.796Z,112.85
2022-11-25T07:12:09.410Z,77.90
2022-11-25T07:15:16.363Z,92.95
2022-11-25T07:18:32.877Z,130.17
2022-11-25T07:22:26.351Z,92.70
2022-11-25T07:25:48.464Z,81.90
2022-11-25T07:30:29.076Z,107.97
2022-11-25T07:41:19.997Z,67.87
2022-11-25T07:44:33.518Z,71.65
2022-11-25T07:48:32.345Z,64.53
2022-11-25T08:18:39.111Z,34.73
2022-11-25T08:29:27.404Z,55.97
2022-11-25T08:36:28.453Z,55.87
2022-11-25T08:40:12.398Z,72.50
